Flight Track Log - Related Links

Times and Time Zones

All times are in EDT time to prevent confusion due to time zone crossing. See the UAL625 flight status page for this flight to view local times or setup timezone preferences in your user account.

Time Position Orientation Groundspeed Altitude Reporting Facility
EDT Latitude Longitude Course Direction KTS MPH feet Rate Location/Type
Mon 05:02:57 PM 38.8333 -77.0333 270° West 138 159 1,100  Level Potomac TRACON
Mon 05:03:57 PM 38.7833 -77.0333 180° South 146 168 3,000 1,650 Climbing Potomac TRACON
Mon 05:04:57 PM 38.7667 -77.0667 237° Southwest 195 224 4,400 2,200 Climbing Potomac TRACON
Mon 05:05:57 PM 38.7500 -77.1500 256° West 267 307 7,400 3,200 Climbing Potomac TRACON
Mon 05:06:00 PM 39.0158 -77.5101 270° West  Level Estimated
Mon 05:06:57 PM 38.7333 -77.2500 258° West 277 319 10,800  Level Potomac TRACON
Mon 05:07:00 PM 39.0565 -77.6285 270° West  Level Estimated
Mon 05:07:57 PM 38.7667 -77.3500 293° West 334 384 13,600  Level Potomac TRACON
Mon 05:08:00 PM 39.0971 -77.7471 270° West  Level Estimated
Mon 05:08:57 PM 38.8167 -77.4500 303° West 340 391 16,600  Level Potomac TRACON
Mon 05:11:12 PM 38.9094 -77.7072 295° West 357 411 18,700 1,399 Climbing Washington Center
Mon 05:12:10 PM 38.9219 -77.8250 278° West 363 418 21,100 2,319 Climbing Washington Center
Mon 05:13:11 PM 38.9378 -77.9803 278° West 385 443 23,300 2,164 Climbing Washington Center
Mon 05:14:12 PM 38.9514 -78.1194 277° West 399 459 25,500 2,017 Climbing Washington Center
Mon 05:15:10 PM 38.9628 -78.2667 276° West 409 471 27,300 1,866 Climbing Washington Center
Mon 05:16:11 PM 38.9739 -78.4192 275° West 416 479 29,200 1,721 Climbing Washington Center
Mon 05:17:12 PM 38.9828 -78.5744 274° West 426 490 30,800 1,636 Climbing Washington Center
Mon 05:18:12 PM 38.9933 -78.7325 275° West 439 505 32,500 1,119 Climbing Washington Center
Mon 05:19:10 PM 39.0036 -78.8906 275° West 445 512 33,000 252 Climbing Washington Center
Mon 05:20:11 PM 39.0117 -79.0486 274° West 445 512 33,000  Level Washington Center
Mon 05:21:12 PM 39.0217 -79.2067 275° West 445 512 33,000  Level Washington Center
Mon 05:22:10 PM 39.0314 -79.3622 275° West 445 512 33,000 559 Level Washington Center
Mon 05:23:10 PM 39.0433 -79.5178 276° West 445 512 34,100 984 Climbing Washington Center
Mon 05:24:12 PM 39.0547 -79.6733 275° West 445 512 35,000 934 Climbing Washington Center
Mon 05:25:12 PM 39.0639 -79.8264 274° West 445 512 36,000 659 Climbing Washington Center
Mon 05:25:43 PM 39.0647 -79.9008 271° West 426 490 36,000  Level Indianapolis Center
Mon 05:26:45 PM 39.0744 -80.0433 275° West 415 478 36,000  Level Indianapolis Center
Mon 05:27:47 PM 39.0833 -80.2008 274° West 419 482 36,000  Level Indianapolis Center
Mon 05:28:49 PM 39.0919 -80.3519 274° West 423 487 36,000  Level Indianapolis Center
Mon 05:29:51 PM 39.0989 -80.5003 273° West 418 481 36,000  Level Indianapolis Center
Mon 05:30:53 PM 39.1097 -80.6794 275° West 419 482 36,000  Level Indianapolis Center
Mon 05:31:55 PM 39.1172 -80.8294 274° West 420 483 36,000  Level Indianapolis Center
Mon 05:32:57 PM 39.1244 -80.9764 274° West 416 479 36,000  Level Indianapolis Center
Mon 05:33:59 PM 39.1469 -81.1214 281° West 415 478 36,000  Level Indianapolis Center
Mon 05:35:01 PM 39.1958 -81.2517 296° West 413 475 36,000  Level Indianapolis Center
Mon 05:36:03 PM 39.2586 -81.4039 298° West 404 465 36,000  Level Indianapolis Center
Mon 05:37:05 PM 39.3094 -81.5325 297° West 404 465 36,000  Level Indianapolis Center
Mon 05:38:07 PM 39.3614 -81.6614 298° West 406 467 36,000  Level Indianapolis Center
Mon 05:39:09 PM 39.4139 -81.7900 298° West 405 466 36,000  Level Indianapolis Center
Mon 05:40:11 PM 39.4653 -81.9181 297° West 403 464 36,000  Level Indianapolis Center
Mon 05:41:13 PM 39.5164 -82.0472 297° West 404 465 36,000  Level Indianapolis Center
Mon 05:42:16 PM 39.5700 -82.1803 298° West 402 463 36,000  Level Indianapolis Center
Mon 05:43:18 PM 39.6311 -82.3342 297° West 401 461 36,000  Level Indianapolis Center
Mon 05:44:20 PM 39.6817 -82.4644 297° West 405 466 36,000  Level Indianapolis Center
Mon 05:45:22 PM 39.7328 -82.5931 297° West 404 465 36,000  Level Indianapolis Center
Mon 05:46:24 PM 39.7844 -82.7217 298° West 403 464 36,000  Level Indianapolis Center
Mon 05:47:26 PM 39.8344 -82.8525 296° West 406 467 36,000  Level Indianapolis Center
Mon 05:48:28 PM 39.8844 -82.9811 297° West 403 464 36,000  Level Indianapolis Center
Mon 05:49:30 PM 39.9447 -83.1367 297° West 405 466 36,000  Level Indianapolis Center
Mon 05:50:32 PM 39.9944 -83.2656 297° West 404 465 36,000  Level Indianapolis Center
Mon 05:51:34 PM 40.0442 -83.3944 297° West 405 466 36,000  Level Indianapolis Center
Mon 05:52:36 PM 40.0939 -83.5239 297° West 405 466 36,000  Level Indianapolis Center
Mon 05:53:38 PM 40.1647 -83.6672 303° West 397 457 36,000  Level Indianapolis Center
Mon 05:54:40 PM 40.2311 -83.7825 307° West 397 457 36,000  Level Indianapolis Center
Mon 05:55:42 PM 40.2964 -83.8975 307° West 397 457 36,000 -476 Level Indianapolis Center
Mon 05:56:46 PM 40.3600 -84.0147 305° West 397 457 35,000 -919 Descending Indianapolis Center
Mon 05:57:46 PM 40.4231 -84.1317 305° West 395 455 34,100 -492 Descending Indianapolis Center
Mon 05:58:48 PM 40.4858 -84.2486 305° West 393 452 34,000 -48 Descending Indianapolis Center
Mon 05:59:50 PM 40.5600 -84.3900 305° West 394 453 34,000  Level Indianapolis Center
Mon 06:00:52 PM 40.6233 -84.5069 306° West 393 452 34,000 48 Level Indianapolis Center
Mon 06:01:55 PM 40.6856 -84.6258 305° West 395 455 34,100  Climbing Indianapolis Center
Mon 06:02:57 PM 40.7478 -84.7433 305° West 394 453 34,000 -48 Descending Indianapolis Center
Mon 06:03:59 PM 40.8031 -84.8656 301° West 392 451 34,000  Level Indianapolis Center
Mon 06:05:01 PM 40.8631 -85.0092 299° West 391 450 34,000  Level Indianapolis Center
Mon 06:06:03 PM 40.9153 -85.1358 299° West 394 453 34,000  Level Indianapolis Center
Mon 06:07:05 PM 40.9675 -85.2622 299° West 395 455 34,000 -194 Level Indianapolis Center
Mon 06:08:07 PM 41.0192 -85.3883 299° West 393 452 33,600 -1,016 Descending Indianapolis Center
Mon 06:09:09 PM 41.0828 -85.5406 299° West 396 456 31,900 -1,935 Descending Indianapolis Center
Mon 06:10:11 PM 41.1367 -85.6714 299° West 404 465 29,600 -2,177 Descending Indianapolis Center
Mon 06:11:13 PM 41.1883 -85.7992 298° West 399 459 27,400 -2,081 Descending Indianapolis Center
Mon 06:12:15 PM 41.2372 -85.9225 298° West 385 443 25,300 -1,161 Descending Indianapolis Center
Mon 06:13:17 PM 41.2867 -86.0472 298° West 384 442 25,000 -145 Descending Indianapolis Center
Mon 06:14:19 PM 41.3211 -86.1839 289° West 390 449 25,000  Level Indianapolis Center
Mon 06:15:21 PM 41.3658 -86.3614 289° West 416 479 25,000 -930 Level Indianapolis Center
Mon 06:16:41 PM 41.4103 -86.5436 288° West 412 474 22,800 -2,070 Descending Chicago Center
Mon 06:17:43 PM 41.4450 -86.6828 288° West 398 458 20,100 -2,661 Descending Chicago Center
Mon 06:18:45 PM 41.4825 -86.8322 289° West 383 441 17,300 -2,468 Descending Chicago Center
Mon 06:19:47 PM 41.5133 -86.9594 288° West 366 421 15,000 -2,371 Descending Chicago Center
Mon 06:20:49 PM 41.5428 -87.0839 288° West 356 410 12,400 -1,440 Descending Chicago Center
Mon 06:21:52 PM 41.5719 -87.2050 288° West 347 399 12,000 -384 Descending Chicago Center
Mon 06:22:54 PM 41.6328 -87.3269 304° West 336 387 11,600 -726 Descending Chicago Center
Mon 06:23:56 PM 41.6933 -87.4233 310° West 340 391 10,500 -516 Descending Chicago Center
Mon 06:26:00 PM 41.8106 -87.6139 310° West 332 382 10,000 -710 Descending Chicago Center
Mon 06:27:02 PM 41.8803 -87.6831 324° Northwest 287 330 8,300 -1,488 Descending Chicago Center
Mon 06:28:01 PM 41.9667 -87.6833 360° North 278 320 7,000 -956 Descending Chicago TRACON
Mon 06:28:55 PM 42.0167 -87.6833 360° North 242 278 6,500 -895 Descending Chicago TRACON
Mon 06:29:55 PM 42.0833 -87.7000 349° North 237 273 5,300 -1,100 Descending Chicago TRACON
Mon 06:30:55 PM 42.1000 -87.7667 289° West 219 252 4,300 -800 Descending Chicago TRACON
Mon 06:31:55 PM 42.0833 -87.8167 246° West 160 184 3,700 -1,000 Descending Chicago TRACON
Mon 06:32:49 PM 42.0500 -87.8333 200° South 152 175 2,400 -1,263 Descending Chicago TRACON
Mon 06:33:49 PM 42.0167 -87.8667 217° Southwest 126 145 1,300 -1,100 Descending Chicago TRACON

Login

Don't have an account? Register now (free) for customized features, flight alerts, and more!